Copper Queen, Arizona
Current Conditions -  °F | °C
As of 7:56 PM on Friday 19 Dec 2014 (Local Time) from KDUG Reporting Station
Clear Clear  
Wind Chill:   Ceiling: Unl
Heat Index:   Visibility: 10mi
Dew Point:   Wind: 9mph
Humidity: 76%   Direction: 30°NNE
Pressure: 30.16"   Gusts: NA
Location:  31.4799°N, 109.96°W
Report Text: KDUG 200256Z AUTO 03008KT 10SM CLR 04/00 A3016 RMK AO2 SLP215 T00390000 50009
Loading
Personal Weather Stations






























Interactive Weather Map New forecast layout! Learn more

10-Day Weather Forecast

Advertisements
Track Severe Weather on mobile